Time;durP1;ratioP1;P1;durP2;ratioP2;P2;SDS_P1;SDS_P2;PMS_P1;PMS_P2;Temp;Humidity;BMP_temperature;BMP_pressure;BME280_temperature;BME280_humidity;BME280_pressure;Samples;Min_cycle;Max_cycle;Signal;HPM_P1;HPM_P2
2024/01/16 00:02:07;;;;;;;11.57;5.70;;;;;;;3.18;65.98;98461.56;6168330;22;96824;-83
2024/01/16 00:04:35;;;;;;;9.53;5.00;;;;;;;3.17;66.82;98465.91;6167638;22;99794;-83
2024/01/16 00:07:01;;;;;;;8.03;4.80;;;;;;;3.42;66.53;98501.38;6167578;22;99636;-83
2024/01/16 00:09:26;;;;;;;8.93;5.43;;;;;;;3.35;66.87;98502.50;6219124;22;96455;-82
2024/01/16 00:11:52;;;;;;;8.97;5.40;;;;;;;3.42;67.04;98503.97;6219248;22;96555;-84
2024/01/16 00:14:18;;;;;;;8.53;5.47;;;;;;;3.32;66.69;98487.88;6167908;22;101669;-83
2024/01/16 00:16:45;;;;;;;9.27;5.07;;;;;;;3.32;66.53;98477.50;6192935;22;101523;-83
2024/01/16 00:19:12;;;;;;;8.47;5.23;;;;;;;3.54;66.01;98506.13;6219330;22;96452;-83
2024/01/16 00:21:41;;;;;;;9.67;5.03;;;;;;;3.30;66.74;98522.53;6193786;22;96782;-84
2024/01/16 00:24:07;;;;;;;10.07;4.73;;;;;;;3.08;67.56;98515.44;6192955;22;100387;-87
2024/01/16 00:26:32;;;;;;;8.43;4.13;;;;;;;3.22;67.30;98521.94;6218683;22;97853;-84
2024/01/16 00:28:58;;;;;;;8.33;5.60;;;;;;;3.26;67.24;98533.91;6218543;22;96470;-83
2024/01/16 00:31:23;;;;;;;7.97;4.73;;;;;;;3.24;67.60;98533.97;6219236;22;96463;-84
2024/01/16 00:33:49;;;;;;;6.80;4.70;;;;;;;3.16;67.86;98565.31;6167852;22;101125;-82
2024/01/16 00:36:15;;;;;;;5.27;3.47;;;;;;;3.19;67.82;98574.75;6167784;22;100735;-83
2024/01/16 00:38:40;;;;;;;5.67;1.97;;;;;;;3.22;67.13;98592.81;6168091;22;96515;-83
2024/01/16 00:41:06;;;;;;;3.97;1.80;;;;;;;3.08;66.45;98582.00;6193529;22;96744;-82
2024/01/16 00:43:32;;;;;;;3.00;1.80;;;;;;;3.16;66.18;98600.78;6167912;22;101237;-82
2024/01/16 00:45:58;;;;;;;2.23;1.07;;;;;;;3.09;65.56;98597.53;6193752;22;101580;-83
2024/01/16 00:48:24;;;;;;;4.40;1.60;;;;;;;3.06;65.33;98591.59;6219199;22;96578;-84
2024/01/16 00:50:49;;;;;;;3.67;1.67;;;;;;;3.07;65.40;98607.09;6193445;22;96856;-82
2024/01/16 00:53:18;;;;;;;3.17;1.33;;;;;;;3.06;65.23;98620.97;6166814;22;101140;-82
2024/01/16 00:55:44;;;;;;;4.53;1.63;;;;;;;2.85;64.81;98583.59;6193090;22;97790;-83
2024/01/16 00:58:09;;;;;;;3.37;1.60;;;;;;;3.05;65.18;98621.00;6193585;22;96523;-82
2024/01/16 01:00:37;;;;;;;4.60;1.70;;;;;;;3.08;65.23;98642.50;6193479;22;96997;-82
2024/01/16 01:03:05;;;;;;;2.73;1.40;;;;;;;3.14;64.86;98631.09;6167731;22;99816;-84
2024/01/16 01:05:31;;;;;;;4.40;1.70;;;;;;;3.22;64.81;98651.59;6192559;22;101094;-82
2024/01/16 01:07:57;;;;;;;2.87;1.40;;;;;;;3.10;65.33;98643.28;6193133;22;96492;-82
2024/01/16 01:10:22;;;;;;;3.50;1.97;;;;;;;3.16;64.75;98647.44;6193534;22;96796;-83
2024/01/16 01:12:48;;;;;;;7.73;2.03;;;;;;;3.24;64.34;98645.47;6192910;22;100774;-83
2024/01/16 01:15:15;;;;;;;3.00;1.40;;;;;;;3.22;64.40;98638.63;6218514;22;97737;-82
2024/01/16 01:17:40;;;;;;;3.67;1.63;;;;;;;3.07;63.99;98638.22;6193098;22;96475;-84
2024/01/16 01:20:08;;;;;;;5.80;2.23;;;;;;;3.09;63.88;98656.31;6193216;22;96804;-82
2024/01/16 01:22:33;;;;;;;6.23;2.70;;;;;;;2.98;63.94;98632.47;6167310;22;101531;-83
2024/01/16 01:24:59;;;;;;;6.23;1.80;;;;;;;3.06;63.77;98662.44;6192804;22;100015;-82
2024/01/16 01:27:24;;;;;;;5.00;1.77;;;;;;;3.17;63.86;98665.56;6193122;22;96461;-82
2024/01/16 01:29:50;;;;;;;6.10;2.33;;;;;;;3.13;63.38;98671.72;6167843;22;96853;-82
2024/01/16 01:32:15;;;;;;;7.60;2.17;;;;;;;3.12;63.56;98680.41;6192680;22;100987;-82
2024/01/16 01:34:42;;;;;;;5.00;2.10;;;;;;;3.12;63.77;98685.59;6193351;22;97875;-82
2024/01/16 01:37:07;;;;;;;4.77;1.90;;;;;;;3.14;63.68;98689.00;6193227;22;96455;-83
2024/01/16 01:39:33;;;;;;;5.70;2.23;;;;;;;2.92;63.23;98649.88;6193337;22;96539;-83
2024/01/16 01:41:58;;;;;;;3.63;1.83;;;;;;;3.12;63.40;98702.91;6166969;22;101633;-83
2024/01/16 01:44:24;;;;;;;4.93;2.10;;;;;;;3.08;63.24;98704.72;6192313;22;101433;-83
2024/01/16 01:46:50;;;;;;;6.90;2.13;;;;;;;3.01;63.80;98712.72;6192853;22;96464;-82
2024/01/16 01:49:16;;;;;;;5.93;2.23;;;;;;;2.98;63.60;98689.50;6193280;22;96849;-83
2024/01/16 01:51:42;;;;;;;6.03;2.97;;;;;;;3.03;63.27;98705.78;6192497;22;101133;-82
2024/01/16 01:54:09;;;;;;;13.63;4.20;;;;;;;3.03;63.11;98705.78;6245400;22;97835;-83
2024/01/16 01:56:35;;;;;;;5.47;2.30;;;;;;;2.86;62.65;98683.75;6193141;22;96519;-82
2024/01/16 01:59:01;;;;;;;5.73;2.40;;;;;;;3.03;62.57;98700.59;6246621;22;96433;-82
2024/01/16 02:01:28;;;;;;;3.73;2.27;;;;;;;3.05;62.75;98717.75;6218567;22;98415;-85
2024/01/16 02:03:55;;;;;;;5.60;2.60;;;;;;;2.95;62.80;98709.41;6192357;22;101519;-82
2024/01/16 02:06:20;;;;;;;5.97;2.60;;;;;;;2.86;63.07;98711.44;6166935;22;96422;-82
2024/01/16 02:08:46;;;;;;;5.70;2.53;;;;;;;2.91;62.99;98714.75;6193125;22;96951;-83
2024/01/16 02:11:12;;;;;;;6.87;2.87;;;;;;;2.76;62.84;98713.41;6167459;22;101270;-82
2024/01/16 02:13:37;;;;;;;6.10;2.90;;;;;;;3.02;62.19;98735.16;6218373;22;97382;-83
2024/01/16 02:16:03;;;;;;;5.53;2.70;;;;;;;2.99;62.43;98735.25;6192737;22;96463;-83
2024/01/16 02:18:29;;;;;;;8.60;2.57;;;;;;;2.95;62.43;98748.31;6218570;22;96690;-83
2024/01/16 02:21:01;;;;;;;6.93;2.90;;;;;;;2.74;62.56;98717.81;6192827;22;97802;-82
2024/01/16 02:23:27;;;;;;;9.75;3.30;;;;;;;2.87;62.52;98742.47;6167872;22;101148;-83
2024/01/16 02:25:53;;;;;;;7.27;2.70;;;;;;;2.77;62.71;98724.66;6218763;22;96508;-85
2024/01/16 02:28:19;;;;;;;9.23;2.47;;;;;;;2.66;62.37;98712.81;6192960;22;96552;-83
2024/01/16 02:30:44;;;;;;;7.13;2.20;;;;;;;2.88;62.61;98746.78;6191979;22;101345;-83
2024/01/16 02:33:10;;;;;;;8.97;2.27;;;;;;;2.69;62.66;98730.03;6167450;22;101334;-82
2024/01/16 02:35:35;;;;;;;7.93;2.87;;;;;;;2.86;62.70;98760.69;6167873;22;96448;-83
2024/01/16 02:38:01;;;;;;;7.37;2.37;;;;;;;2.85;62.95;98767.59;6167629;22;96827;-84
2024/01/16 02:40:26;;;;;;;7.77;2.80;;;;;;;2.76;62.84;98760.06;6192543;22;100981;-82
2024/01/16 02:42:52;;;;;;;10.10;3.43;;;;;;;2.85;62.97;98777.97;6192543;22;97745;-82
2024/01/16 02:45:18;;;;;;;12.63;3.93;;;;;;;2.91;63.12;98792.50;6167644;22;96554;-82
2024/01/16 02:47:43;;;;;;;11.43;3.60;;;;;;;2.76;62.85;98764.41;6193415;22;96691;-83
2024/01/16 02:50:11;;;;;;;15.90;4.40;;;;;;;2.85;63.35;98780.56;6218016;22;97601;-83
2024/01/16 02:52:37;;;;;;;10.13;3.83;;;;;;;2.78;63.60;98773.00;6212157;22;101416;-82
2024/01/16 02:55:04;;;;;;;11.40;4.37;;;;;;;2.82;63.39;98793.59;6161809;22;96709;-84
2024/01/16 02:57:30;;;;;;;11.43;3.70;;;;;;;2.81;63.66;98785.84;6161784;22;96719;-82
2024/01/16 02:59:56;;;;;;;9.73;3.93;;;;;;;2.87;63.79;98793.47;6161935;22;101009;-82
2024/01/16 03:02:22;;;;;;;11.13;3.80;;;;;;;2.85;64.04;98811.66;6161623;22;99493;-82
2024/01/16 03:04:48;;;;;;;13.07;4.20;;;;;;;2.87;64.11;98801.25;6187606;22;96532;-85
2024/01/16 03:07:13;;;;;;;10.03;3.83;;;;;;;2.71;63.93;98788.69;6162255;22;96714;-82
2024/01/16 03:09:39;;;;;;;5.57;2.90;;;;;;;2.61;63.98;98791.56;6161936;22;101356;-82
2024/01/16 03:12:05;;;;;;;7.73;3.13;;;;;;;2.84;63.71;98811.69;6214820;22;97491;-82
2024/01/16 03:14:33;;;;;;;9.97;3.80;;;;;;;2.87;63.98;98814.19;6187286;22;96475;-82
2024/01/16 03:17:01;;;;;;;12.90;3.90;;;;;;;2.88;63.89;98808.13;6188416;22;96697;-82
2024/01/16 03:19:27;;;;;;;10.77;3.73;;;;;;;2.97;63.88;98817.38;6186348;22;101383;-82
2024/01/16 03:21:53;;;;;;;9.50;3.60;;;;;;;2.89;63.92;98820.19;6161873;22;101652;-82
2024/01/16 03:24:19;;;;;;;9.33;3.10;;;;;;;2.83;63.86;98800.47;6187655;22;96477;-82
2024/01/16 03:26:45;;;;;;;10.43;3.30;;;;;;;2.70;63.51;98784.38;6187604;22;96737;-82
2024/01/16 03:29:11;;;;;;;9.10;2.57;;;;;;;2.97;63.75;98826.03;6161761;22;101180;-81
2024/01/16 03:31:36;;;;;;;6.30;2.60;;;;;;;2.88;63.71;98819.38;6187215;22;101552;-82
2024/01/16 03:34:02;;;;;;;8.07;2.80;;;;;;;2.82;63.76;98810.88;6187616;22;96534;-82
2024/01/16 03:36:27;;;;;;;9.77;3.33;;;;;;;2.86;63.59;98815.09;6162686;22;96810;-81
2024/01/16 03:38:53;;;;;;;11.87;3.20;;;;;;;2.79;63.97;98798.84;6214443;22;98334;-82
2024/01/16 03:41:18;;;;;;;16.07;6.17;;;;;;;2.85;63.93;98805.59;6186729;22;101785;-84
2024/01/16 03:43:44;;;;;;;8.07;3.10;;;;;;;2.85;63.89;98806.47;6161449;22;96468;-82
2024/01/16 03:46:13;;;;;;;7.07;2.73;;;;;;;2.69;64.06;98781.84;6187541;22;96637;-82
2024/01/16 03:48:39;;;;;;;5.50;2.10;;;;;;;2.89;63.65;98809.84;6161496;22;101044;-84
2024/01/16 03:51:05;;;;;;;6.33;2.40;;;;;;;2.76;64.01;98813.63;6186852;22;100680;-82
2024/01/16 03:53:32;;;;;;;5.53;2.50;;;;;;;2.74;64.09;98810.25;6143199;22;98352;-82
2024/01/16 03:55:58;;;;;;;5.80;2.50;;;;;;;2.75;64.05;98814.53;6157012;22;96660;-82
2024/01/16 03:58:23;;;;;;;7.13;2.77;;;;;;;2.48;64.56;98791.88;6156419;22;100984;-84
2024/01/16 04:00:50;;;;;;;4.83;2.23;;;;;;;2.60;64.24;98839.94;6156719;22;101414;-83
2024/01/16 04:03:16;;;;;;;8.00;2.93;;;;;;;2.57;64.41;98821.03;6182336;22;96481;-82
2024/01/16 04:05:42;;;;;;;6.40;2.63;;;;;;;2.57;64.07;98821.88;6157155;22;96783;-83
2024/01/16 04:08:08;;;;;;;6.93;2.10;;;;;;;2.72;64.00;98826.66;6131085;22;101794;-82
2024/01/16 04:10:33;;;;;;;5.37;2.10;;;;;;;2.72;63.87;98836.19;6158192;22;97460;-82
2024/01/16 04:13:02;;;;;;;5.03;2.10;;;;;;;2.76;63.55;98834.38;6158188;22;96536;-83
2024/01/16 04:15:28;;;;;;;6.33;2.47;;;;;;;2.82;63.63;98837.66;6157930;22;96870;-83
2024/01/16 04:17:54;;;;;;;7.50;2.63;;;;;;;2.69;63.09;98837.13;6132798;22;99909;-84
2024/01/16 04:20:19;;;;;;;5.87;2.30;;;;;;;2.57;63.33;98808.09;6157583;22;98149;-83
2024/01/16 04:22:45;;;;;;;4.77;2.00;;;;;;;2.80;63.33;98854.16;6132957;22;96413;-82
2024/01/16 04:25:11;;;;;;;10.80;2.77;;;;;;;2.74;63.29;98859.50;6184113;22;96768;-82
2024/01/16 04:27:36;;;;;;;5.80;2.23;;;;;;;2.70;63.24;98844.00;6183038;22;97413;-82
2024/01/16 04:30:02;;;;;;;6.53;2.23;;;;;;;2.69;63.36;98851.81;6183103;22;97832;-83
2024/01/16 04:32:28;;;;;;;6.60;2.43;;;;;;;2.73;63.65;98861.19;6157673;22;96503;-82
2024/01/16 04:34:53;;;;;;;7.63;2.33;;;;;;;2.75;63.59;98858.59;6158076;22;96816;-84
2024/01/16 04:37:19;;;;;;;6.60;2.50;;;;;;;2.87;63.14;98872.06;6182902;22;97596;-83
2024/01/16 04:39:44;;;;;;;4.67;2.20;;;;;;;2.75;63.18;98836.09;6132705;22;100378;-82
2024/01/16 04:42:11;;;;;;;5.73;2.40;;;;;;;2.76;63.36;98855.94;6133147;22;96505;-82
2024/01/16 04:44:37;;;;;;;4.90;2.70;;;;;;;2.65;63.32;98835.50;6158188;22;96712;-83
2024/01/16 04:47:02;;;;;;;4.47;1.90;;;;;;;2.75;63.24;98851.66;6182362;22;97944;-83
2024/01/16 04:49:28;;;;;;;7.13;2.30;;;;;;;2.76;63.14;98862.88;6158124;22;100901;-83
2024/01/16 04:51:53;;;;;;;5.93;2.30;;;;;;;2.74;63.09;98864.66;6133073;22;96571;-82
2024/01/16 04:54:19;;;;;;;8.27;2.53;;;;;;;2.46;63.59;98818.72;6186623;22;96917;-85
2024/01/16 04:56:45;;;;;;;6.17;2.47;;;;;;;2.59;63.73;98839.97;6212973;22;101267;-82
2024/01/16 04:59:10;;;;;;;8.60;3.00;;;;;;;2.75;64.13;98880.16;6213540;22;97842;-83
2024/01/16 05:01:36;;;;;;;8.13;2.80;;;;;;;2.59;63.90;98843.44;6163159;22;96509;-83
2024/01/16 05:04:03;;;;;;;6.20;2.23;;;;;;;2.55;63.74;98835.75;6188306;22;96873;-83
2024/01/16 05:06:29;;;;;;;4.80;2.47;;;;;;;2.84;63.94;98879.94;6162726;22;100940;-86
2024/01/16 05:08:55;;;;;;;5.93;2.80;;;;;;;2.76;63.96;98873.22;6162512;22;100918;-82
2024/01/16 05:11:21;;;;;;;5.60;2.57;;;;;;;2.83;63.73;98890.34;6162923;22;96515;-83
2024/01/16 05:13:46;;;;;;;5.00;2.60;;;;;;;2.70;63.87;98874.25;6163453;22;96604;-82
2024/01/16 05:16:13;;;;;;;6.07;3.00;;;;;;;2.72;64.28;98877.66;6188023;22;97470;-83
2024/01/16 05:18:41;;;;;;;7.67;3.00;;;;;;;2.70;64.08;98867.31;6187643;22;101042;-82
2024/01/16 05:21:07;;;;;;;6.83;2.47;;;;;;;2.78;63.94;98880.09;6186939;22;96532;-82
2024/01/16 05:23:32;;;;;;;8.97;2.70;;;;;;;2.83;63.66;98865.28;6188479;22;96757;-83
2024/01/16 05:25:58;;;;;;;13.17;4.13;;;;;;;2.79;63.89;98874.00;6187748;22;100054;-83
2024/01/16 05:28:23;;;;;;;10.57;2.80;;;;;;;2.85;63.72;98870.41;6187715;22;99720;-83
2024/01/16 05:30:49;;;;;;;12.80;4.07;;;;;;;2.80;64.12;98872.28;6188245;22;96610;-85
2024/01/16 05:33:14;;;;;;;7.23;2.23;;;;;;;2.80;63.71;98870.53;6213871;22;96745;-84
2024/01/16 05:35:40;;;;;;;7.97;2.20;;;;;;;2.78;64.06;98882.69;6162426;22;101210;-83
2024/01/16 05:38:06;;;;;;;6.73;2.20;;;;;;;2.78;63.58;98880.09;6213656;22;101002;-84
2024/01/16 05:40:32;;;;;;;3.17;2.33;;;;;;;2.59;64.01;98856.38;6188532;22;96534;-83
2024/01/16 05:42:57;;;;;;;5.00;2.60;;;;;;;2.84;63.48;98894.63;6215358;22;96671;-83
2024/01/16 05:45:23;;;;;;;5.47;2.83;;;;;;;2.69;63.62;98883.75;6161786;22;99280;-83
2024/01/16 05:47:48;;;;;;;9.40;2.77;;;;;;;2.65;63.73;98882.16;6213105;22;101032;-84
2024/01/16 05:50:16;;;;;;;11.07;2.67;;;;;;;2.47;64.26;98854.06;6188230;22;96585;-83
2024/01/16 05:52:42;;;;;;;9.90;3.67;;;;;;;2.66;64.47;98890.75;6213064;22;96659;-83
2024/01/16 05:55:08;;;;;;;5.20;2.20;;;;;;;2.47;64.17;98857.53;6213264;22;100226;-83
2024/01/16 05:57:34;;;;;;;12.00;3.10;;;;;;;2.64;64.17;98877.84;6188107;22;101227;-82
2024/01/16 06:00:03;;;;;;;4.60;2.60;;;;;;;2.78;63.92;98898.22;6213601;22;96490;-83
2024/01/16 06:02:31;;;;;;;6.18;2.80;;;;;;;2.87;64.01;98903.19;6190116;22;96464;-82
2024/01/16 06:04:56;;;;;;;7.17;3.00;;;;;;;2.84;64.20;98898.06;6187578;22;100774;-83
2024/01/16 06:07:22;;;;;;;10.83;3.00;;;;;;;2.88;63.93;98891.06;6214632;22;97971;-82
2024/01/16 06:09:47;;;;;;;11.07;3.33;;;;;;;2.70;63.87;98869.91;6214635;22;96460;-83
2024/01/16 06:12:13;;;;;;;6.43;3.13;;;;;;;2.58;63.82;98844.31;6213391;22;96777;-83
2024/01/16 06:14:38;;;;;;;6.03;3.50;;;;;;;2.83;64.29;98891.19;6213454;22;98104;-83
2024/01/16 06:17:05;;;;;;;8.40;3.30;;;;;;;2.61;64.02;98871.88;6187719;22;100347;-83
2024/01/16 06:19:32;;;;;;;8.43;4.30;;;;;;;2.98;63.90;98940.94;6187921;22;96486;-83
2024/01/16 06:21:58;;;;;;;13.47;5.07;;;;;;;2.71;65.55;98953.69;6187508;22;96781;-84
2024/01/16 06:24:24;;;;;;;6.80;3.47;;;;;;;2.22;66.89;98953.06;6162509;22;101147;-83
2024/01/16 06:26:49;;;;;;;5.20;2.37;;;;;;;2.36;66.11;98945.00;6187879;22;101208;-85
2024/01/16 06:29:15;;;;;;;3.27;1.83;;;;;;;2.55;65.62;98958.38;6162465;22;96557;-83
2024/01/16 06:31:40;;;;;;;3.67;2.00;;;;;;;2.43;64.55;98941.38;6162376;22;96837;-84
2024/01/16 06:34:06;;;;;;;3.40;1.67;;;;;;;2.49;64.37;98966.28;6187074;22;101280;-83
2024/01/16 06:36:31;;;;;;;3.57;1.50;;;;;;;2.17;64.30;98934.19;6187485;22;100952;-83
2024/01/16 06:38:57;;;;;;;5.30;1.57;;;;;;;2.33;64.31;98946.78;6214987;22;96547;-83
2024/01/16 06:41:22;;;;;;;4.23;2.00;;;;;;;2.22;64.15;98947.06;6187594;22;96649;-82
2024/01/16 06:43:48;;;;;;;4.13;1.70;;;;;;;2.50;63.47;98983.53;6162125;22;101356;-82
2024/01/16 06:46:13;;;;;;;3.83;1.67;;;;;;;2.48;63.30;98987.91;6187309;22;101793;-83
2024/01/16 06:48:39;;;;;;;3.43;1.73;;;;;;;2.56;63.13;98991.19;6187720;22;96569;-82
2024/01/16 06:51:05;;;;;;;5.77;2.33;;;;;;;2.47;62.90;98988.78;6163178;22;96866;-85
2024/01/16 06:53:30;;;;;;;3.80;1.57;;;;;;;2.40;62.91;98980.28;6161767;22;101119;-83
2024/01/16 06:55:56;;;;;;;4.07;1.80;;;;;;;2.39;63.06;98976.00;6212897;22;98037;-83
2024/01/16 06:58:21;;;;;;;3.60;2.47;;;;;;;2.55;63.03;98997.22;6212711;22;96419;-82
2024/01/16 07:00:47;;;;;;;3.30;2.00;;;;;;;2.58;62.75;99014.44;6213473;22;96715;-82
2024/01/16 07:03:13;;;;;;;4.83;2.47;;;;;;;2.29;62.77;98960.72;6187310;22;101168;-82
2024/01/16 07:05:40;;;;;;;6.23;2.13;;;;;;;2.38;62.85;98976.88;6161880;22;100791;-82
2024/01/16 07:08:09;;;;;;;10.13;2.67;;;;;;;2.71;62.45;99050.44;6187676;22;96649;-83
2024/01/16 07:10:35;;;;;;;5.93;2.20;;;;;;;2.57;62.58;99036.06;6213277;22;96733;-86
2024/01/16 07:13:01;;;;;;;4.90;2.17;;;;;;;2.47;62.99;99018.16;6212939;22;98392;-83
2024/01/16 07:15:27;;;;;;;5.30;2.70;;;;;;;2.69;63.18;99056.53;6162296;22;101219;-83
2024/01/16 07:17:52;;;;;;;9.00;2.93;;;;;;;2.74;63.47;99067.66;6213149;22;96534;-82
2024/01/16 07:20:18;;;;;;;5.23;2.77;;;;;;;2.65;63.37;99060.94;6213007;22;96582;-81
2024/01/16 07:22:43;;;;;;;5.53;2.70;;;;;;;2.54;63.29;99049.09;6186371;22;101630;-83
2024/01/16 07:25:09;;;;;;;7.27;2.53;;;;;;;2.56;63.06;99061.13;6212822;22;97790;-83
2024/01/16 07:27:34;;;;;;;3.27;1.93;;;;;;;2.55;63.28;99048.19;6186885;22;96461;-83
2024/01/16 07:30:00;;;;;;;4.53;1.83;;;;;;;2.81;63.02;99089.94;6187437;22;96759;-85
2024/01/16 07:32:26;;;;;;;6.03;2.90;;;;;;;2.72;63.08;99085.81;6212626;22;97982;-83
2024/01/16 07:34:52;;;;;;;5.00;2.50;;;;;;;2.67;63.53;99082.47;6187363;22;100878;-82
2024/01/16 07:37:18;;;;;;;5.37;2.90;;;;;;;2.47;63.26;99061.31;6187405;22;96576;-84
2024/01/16 07:39:44;;;;;;;7.17;3.40;;;;;;;2.43;63.48;99047.56;6187719;22;96798;-82
2024/01/16 07:42:10;;;;;;;5.33;2.50;;;;;;;2.78;63.47;99115.06;6161617;22;101244;-84
2024/01/16 07:44:36;;;;;;;5.33;2.20;;;;;;;2.81;63.32;99123.63;6188010;22;99875;-83
2024/01/16 07:47:02;;;;;;;4.80;2.50;;;;;;;2.86;62.87;99118.38;6162697;22;96659;-82
2024/01/16 07:49:27;;;;;;;3.97;2.00;;;;;;;2.90;63.29;99120.84;6163238;22;96502;-83
2024/01/16 07:51:53;;;;;;;5.17;2.67;;;;;;;2.70;63.14;99072.03;6188341;22;98223;-83
2024/01/16 07:54:18;;;;;;;6.37;2.50;;;;;;;2.68;63.21;99067.78;6188128;22;97815;-83
2024/01/16 07:56:45;;;;;;;5.90;3.13;;;;;;;2.74;62.85;99077.16;6163144;22;96460;-82
2024/01/16 07:59:10;;;;;;;6.30;3.27;;;;;;;2.94;63.01;99101.75;6188756;22;96823;-83
2024/01/16 08:01:37;;;;;;;6.43;2.90;;;;;;;2.90;63.00;99120.84;6188031;22;100962;-82
2024/01/16 08:04:03;;;;;;;9.63;4.20;;;;;;;2.97;63.04;99136.25;6188792;22;101160;-84
2024/01/16 08:06:29;;;;;;;6.37;3.93;;;;;;;2.94;62.69;99126.84;6188773;22;96572;-82
2024/01/16 08:08:54;;;;;;;7.57;3.73;;;;;;;2.92;63.09;99134.63;6188421;22;96720;-84
2024/01/16 08:11:20;;;;;;;4.27;2.47;;;;;;;2.85;63.13;99140.84;6213108;22;97396;-87
2024/01/16 08:13:45;;;;;;;4.87;2.83;;;;;;;2.96;62.99;99148.38;6162911;22;100853;-85
2024/01/16 08:16:11;;;;;;;5.80;2.23;;;;;;;2.87;62.92;99131.28;6214071;22;96452;-84
2024/01/16 08:18:36;;;;;;;7.87;2.90;;;;;;;2.67;62.94;99126.50;6188616;22;96759;-84
2024/01/16 08:21:02;;;;;;;7.23;2.50;;;;;;;2.74;63.28;99140.22;6188221;22;97928;-83
2024/01/16 08:23:27;;;;;;;8.73;4.07;;;;;;;2.92;63.21;99180.44;6215170;22;97383;-84
2024/01/16 08:25:53;;;;;;;7.60;2.60;;;;;;;2.77;62.93;99149.66;6188534;22;96522;-85
2024/01/16 08:28:19;;;;;;;6.77;2.87;;;;;;;2.89;63.13;99171.00;6214457;22;96778;-84
2024/01/16 08:30:44;;;;;;;5.50;3.73;;;;;;;3.03;62.99;99188.84;6187908;22;100719;-83
2024/01/16 08:33:11;;;;;;;5.20;2.80;;;;;;;3.08;62.69;99199.09;6163112;22;101277;-86
2024/01/16 08:35:37;;;;;;;4.03;2.30;;;;;;;3.12;62.28;99196.44;6187687;22;96562;-85
2024/01/16 08:38:03;;;;;;;5.70;3.13;;;;;;;3.08;62.65;99192.19;6188366;22;96755;-82
2024/01/16 08:40:28;;;;;;;9.00;2.70;;;;;;;3.12;62.67;99195.59;6187885;22;101114;-84
2024/01/16 08:42:54;;;;;;;4.43;2.30;;;;;;;3.27;62.46;99207.34;6162690;22;101215;-81
2024/01/16 08:45:21;;;;;;;6.53;2.73;;;;;;;3.30;62.17;99177.00;6163092;22;96526;-84
2024/01/16 08:47:47;;;;;;;5.77;3.73;;;;;;;3.24;61.93;99165.94;6162801;22;96776;-83
2024/01/16 08:50:12;;;;;;;7.13;3.30;;;;;;;3.53;62.17;99201.59;6213495;22;97788;-82
2024/01/16 08:52:38;;;;;;;6.37;3.47;;;;;;;3.65;61.41;99198.69;6187774;22;101990;-82
2024/01/16 08:55:04;;;;;;;7.00;2.93;;;;;;;3.92;61.06;99209.28;6187317;22;96568;-82
2024/01/16 08:57:29;;;;;;;7.10;3.20;;;;;;;3.96;60.95;99216.13;6188562;22;96778;-82
2024/01/16 08:59:55;;;;;;;4.40;2.27;;;;;;;3.95;60.82;99211.81;6187276;22;101031;-82
2024/01/16 09:02:21;;;;;;;4.80;2.83;;;;;;;3.92;60.49;99220.53;6187822;22;101281;-83
2024/01/16 09:04:50;;;;;;;5.90;3.07;;;;;;;3.82;60.61;99212.13;6163164;22;97048;-83
2024/01/16 09:07:18;;;;;;;5.63;3.33;;;;;;;3.85;61.08;99224.19;6188715;22;96730;-84
2024/01/16 09:09:44;;;;;;;9.90;3.87;;;;;;;3.78;60.55;99189.72;6187574;22;101506;-83
2024/01/16 09:12:10;;;;;;;6.27;3.60;;;;;;;3.88;60.26;99215.47;6187526;22;102389;-82
2024/01/16 09:14:35;;;;;;;8.60;3.70;;;;;;;3.80;60.30;99223.44;6188511;22;96528;-82
2024/01/16 09:17:00;;;;;;;7.23;3.40;;;;;;;3.71;59.85;99210.66;6214316;22;96662;-84
2024/01/16 09:19:26;;;;;;;6.13;3.50;;;;;;;3.59;60.71;99224.78;6187867;22;97619;-81
2024/01/16 09:21:52;;;;;;;10.07;3.63;;;;;;;3.66;60.45;99230.69;6162330;22;101327;-81
2024/01/16 09:24:18;;;;;;;6.20;3.23;;;;;;;3.47;60.98;99209.50;6162121;22;96540;-81
2024/01/16 09:26:44;;;;;;;10.40;4.23;;;;;;;3.52;61.03;99243.97;6189233;22;96749;-84
2024/01/16 09:29:10;;;;;;;18.93;7.70;;;;;;;3.39;60.99;99239.06;6213312;22;97307;-81
2024/01/16 09:31:36;;;;;;;18.47;7.77;;;;;;;3.37;61.24;99248.63;6213321;22;97808;-83
2024/01/16 09:34:05;;;;;;;14.37;6.97;;;;;;;3.45;61.07;99245.00;6162712;22;96568;-82
2024/01/16 09:36:30;;;;;;;14.73;5.70;;;;;;;3.29;61.22;99208.19;6163014;22;96592;-82
2024/01/16 09:38:56;;;;;;;13.50;6.10;;;;;;;3.53;61.20;99243.94;6187514;22;101264;-82
2024/01/16 09:41:21;;;;;;;12.57;6.13;;;;;;;3.37;61.98;99227.88;6187956;22;101459;-81
2024/01/16 09:43:47;;;;;;;13.80;6.20;;;;;;;3.40;60.96;99216.56;6213535;22;96559;-82
2024/01/16 09:46:15;;;;;;;9.20;5.07;;;;;;;3.51;60.94;99213.72;6162614;22;96955;-81
2024/01/16 09:48:41;;;;;;;10.03;5.40;;;;;;;3.51;61.14;99232.75;6187281;22;97888;-82
2024/01/16 09:51:07;;;;;;;9.00;5.13;;;;;;;3.47;61.18;99223.34;6187507;22;101148;-81
2024/01/16 09:53:33;;;;;;;8.90;5.00;;;;;;;3.72;60.66;99246.97;6213396;22;96678;-81
2024/01/16 09:56:02;;;;;;;13.00;4.67;;;;;;;3.59;60.73;99243.81;6188069;22;96811;-82
2024/01/16 09:58:28;;;;;;;9.87;4.20;;;;;;;3.68;61.06;99244.50;6187244;22;99504;-82
2024/01/16 10:00:54;;;;;;;12.13;4.40;;;;;;;3.71;60.89;99247.84;6187698;22;101776;-82
2024/01/16 10:03:20;;;;;;;7.47;4.03;;;;;;;3.51;60.76;99237.09;6213741;22;96511;-82
2024/01/16 10:05:48;;;;;;;9.20;4.07;;;;;;;3.47;60.90;99238.91;6162569;22;96569;-82
2024/01/16 10:08:13;;;;;;;9.07;4.33;;;;;;;3.61;60.83;99251.56;6187385;22;101740;-81
2024/01/16 10:10:39;;;;;;;8.40;4.20;;;;;;;3.38;61.19;99237.34;6213075;22;97535;-81
2024/01/16 10:13:05;;;;;;;8.60;4.00;;;;;;;3.58;61.30;99270.66;6187135;22;96620;-83
2024/01/16 10:15:31;;;;;;;9.20;4.27;;;;;;;3.62;60.84;99266.25;6162514;22;96938;-82
2024/01/16 10:17:59;;;;;;;12.40;4.40;;;;;;;3.53;60.79;99275.09;6162147;22;101850;-82
2024/01/16 10:20:34;;;;;;;8.67;3.97;;;;;;;3.50;61.03;99259.59;6187922;22;97589;-81
2024/01/16 10:23:00;;;;;;;7.03;4.03;;;;;;;3.55;61.09;99267.25;6187793;22;96515;-82
2024/01/16 10:25:25;;;;;;;9.67;3.73;;;;;;;3.42;61.17;99251.13;6188009;22;96759;-82
2024/01/16 10:28:03;;;;;;;7.43;3.30;;;;;;;3.61;61.30;99274.94;6212797;22;100995;-82
2024/01/16 10:30:29;;;;;;;10.80;5.30;;;;;;;3.54;60.97;99271.59;6213514;22;97961;-80
2024/01/16 10:32:55;;;;;;;7.27;4.10;;;;;;;3.58;60.64;99288.81;6188060;22;96465;-80
2024/01/16 10:35:20;;;;;;;7.70;3.70;;;;;;;3.45;60.12;99284.78;6162432;22;96816;-82
2024/01/16 10:37:50;;;;;;;11.47;5.20;;;;;;;3.40;60.07;99278.81;6186955;22;97752;-84
2024/01/16 10:40:18;;;;;;;14.33;7.30;;;;;;;3.52;60.58;99298.47;6187386;22;101027;-85
2024/01/16 10:42:56;;;;;;;14.37;5.87;;;;;;;3.34;60.65;99265.97;6187958;22;96556;-83
2024/01/16 10:45:22;;;;;;;13.93;6.90;;;;;;;3.38;60.47;99288.41;6187903;22;96749;-83
2024/01/16 10:47:49;;;;;;;9.70;4.50;;;;;;;3.36;60.63;99285.81;6214338;22;97743;-81
2024/01/16 10:50:15;;;;;;;5.20;3.13;;;;;;;3.56;60.31;99298.38;6212425;22;97645;-83
2024/01/16 10:52:48;;;;;;;8.57;5.50;;;;;;;3.53;60.28;99307.97;6187383;22;96840;-82
2024/01/16 10:55:22;;;;;;;9.60;3.80;;;;;;;3.37;60.02;99297.03;6188325;22;96652;-82
2024/01/16 10:57:50;;;;;;;9.93;3.60;;;;;;;3.51;60.15;99310.59;6162620;22;99358;-82
2024/01/16 11:00:19;;;;;;;7.83;3.80;;;;;;;3.47;60.12;99313.28;6187453;22;97817;-82
2024/01/16 11:03:00;;;;;;;11.87;4.80;;;;;;;3.42;60.53;99312.53;6161451;22;96490;-82
2024/01/16 11:05:27;;;;;;;10.37;3.73;;;;;;;3.49;60.28;99307.19;6187661;22;96596;-81
2024/01/16 11:07:54;;;;;;;5.17;3.20;;;;;;;3.52;60.25;99314.03;6187090;22;101578;-82
2024/01/16 11:10:20;;;;;;;10.43;2.97;;;;;;;3.58;60.18;99312.19;6161769;22;101232;-81
2024/01/16 11:12:46;;;;;;;8.27;3.20;;;;;;;3.62;60.03;99306.03;6187639;22;96515;-82
2024/01/16 11:15:12;;;;;;;4.77;2.87;;;;;;;3.54;60.15;99269.00;6162189;22;96827;-83
2024/01/16 11:17:39;;;;;;;8.53;3.73;;;;;;;3.62;60.48;99299.97;6161095;22;101521;-83
2024/01/16 11:20:09;;;;;;;7.33;3.27;;;;;;;3.81;60.17;99313.38;6162476;22;101669;-81
2024/01/16 11:22:38;;;;;;;10.67;4.07;;;;;;;3.68;59.94;99302.44;6162684;22;96705;-82
2024/01/16 11:25:11;;;;;;;9.30;3.90;;;;;;;3.74;60.77;99311.84;6187013;22;96791;-81
2024/01/16 11:27:38;;;;;;;8.83;3.83;;;;;;;3.78;60.50;99310.88;6186021;22;101206;-82
2024/01/16 11:30:06;;;;;;;6.60;3.57;;;;;;;3.70;60.77;99307.59;6186986;22;100908;-82
2024/01/16 11:32:34;;;;;;;9.20;3.73;;;;;;;3.71;60.55;99304.97;6187062;22;96658;-81